Time;durP1;ratioP1;P1;durP2;ratioP2;P2;SDS_P1;SDS_P2;PMS_P1;PMS_P2;Temp;Humidity;BMP_temperature;BMP_pressure;BME280_temperature;BME280_humidity;BME280_pressure;Samples;Min_cycle;Max_cycle;Signal;HPM_P1;HPM_P2
2022/04/02 00:02:22;;;;;;;8.03;7.33;;;;;;;-0.34;100.00;93045.09;5001565;28;20199;-62
2022/04/02 00:05:09;;;;;;;7.73;7.03;;;;;;;-0.30;100.00;93039.63;5015648;28;20306;-62
2022/04/02 00:07:55;;;;;;;8.60;7.80;;;;;;;-0.25;100.00;93047.13;5040051;28;20194;-62
2022/04/02 00:10:44;;;;;;;8.70;7.90;;;;;;;-0.25;100.00;93033.72;5036416;28;20626;-62
2022/04/02 00:13:32;;;;;;;8.83;8.03;;;;;;;-0.25;100.00;93023.75;5029551;28;20199;-62
2022/04/02 00:16:18;;;;;;;9.43;8.53;;;;;;;-0.37;100.00;93026.44;5034360;28;20269;-62
2022/04/02 00:19:04;;;;;;;8.13;7.43;;;;;;;-0.35;100.00;93026.78;5047646;28;20222;-62
2022/04/02 00:21:50;;;;;;;9.07;8.17;;;;;;;-0.22;100.00;93024.81;5048495;28;20221;-62
2022/04/02 00:24:37;;;;;;;8.83;8.00;;;;;;;-0.17;100.00;93021.59;5039437;28;20547;-62
2022/04/02 00:27:23;;;;;;;8.37;7.57;;;;;;;-0.27;100.00;93038.75;5020138;28;20194;-61
2022/04/02 00:30:09;;;;;;;8.63;7.83;;;;;;;-0.26;100.00;93024.94;5020383;28;20218;-62
2022/04/02 00:32:56;;;;;;;8.53;7.73;;;;;;;-0.35;100.00;93027.53;5033856;28;20619;-62
2022/04/02 00:35:43;;;;;;;8.60;7.80;;;;;;;-0.29;100.00;93035.78;5048054;28;20285;-61
2022/04/02 00:38:28;;;;;;;7.07;6.37;;;;;;;-0.25;100.00;93029.09;5031218;28;20232;-62
2022/04/02 00:41:16;;;;;;;8.03;7.33;;;;;;;-0.19;100.00;93034.69;5023912;28;20191;-62
2022/04/02 00:44:09;;;;;;;8.53;7.63;;;;;;;-0.25;100.00;93031.78;5001482;28;20618;-62
2022/04/02 00:46:54;;;;;;;8.07;7.27;;;;;;;-0.27;100.00;93028.78;5028445;28;20187;-62
2022/04/02 00:49:40;;;;;;;8.83;8.03;;;;;;;-0.21;100.00;93027.06;5016773;28;20333;-62
2022/04/02 00:52:27;;;;;;;9.00;8.20;;;;;;;-0.23;100.00;93031.34;5029583;28;20255;-62
2022/04/02 00:55:13;;;;;;;9.10;8.27;;;;;;;-0.20;100.00;93027.78;5021677;28;20257;-63
2022/04/02 00:58:00;;;;;;;8.43;7.63;;;;;;;-0.34;100.00;93029.00;5040857;28;20220;-62
2022/04/02 01:00:46;;;;;;;9.07;8.27;;;;;;;-0.32;100.00;93023.22;5040178;28;20280;-62
2022/04/02 01:03:34;;;;;;;9.27;8.37;;;;;;;-0.36;100.00;93038.69;5034260;28;20656;-62
2022/04/02 01:06:21;;;;;;;8.67;7.87;;;;;;;-0.42;100.00;93035.78;5030331;28;20297;-62
2022/04/02 01:09:10;;;;;;;9.23;8.33;;;;;;;-0.32;100.00;93021.28;5020405;28;20213;-62
2022/04/02 01:11:56;;;;;;;8.73;7.90;;;;;;;-0.32;100.00;93026.66;5022455;28;20290;-67
2022/04/02 01:14:42;;;;;;;9.83;8.87;;;;;;;-0.32;100.00;93023.22;5033465;28;20189;-67
2022/04/02 01:17:44;;;;;;;9.10;8.20;;;;;;;-0.38;100.00;93027.66;5033387;28;21537;-67
2022/04/02 01:20:35;;;;;;;8.80;8.00;;;;;;;-0.45;100.00;93025.19;5032815;28;20229;-67
2022/04/02 01:23:28;;;;;;;9.90;8.90;;;;;;;-0.49;100.00;93022.63;5044747;28;20221;-68
2022/04/02 01:26:19;;;;;;;10.00;9.00;;;;;;;-0.45;100.00;93025.19;5018975;28;20641;-67
2022/04/02 01:29:09;;;;;;;10.53;9.47;;;;;;;-0.36;100.00;93030.66;5020238;28;20613;-67
2022/04/02 01:32:02;;;;;;;9.23;8.33;;;;;;;-0.38;100.00;93039.13;5046720;28;20194;-67
2022/04/02 01:34:52;;;;;;;10.07;9.13;;;;;;;-0.51;100.00;93041.06;5030534;28;20714;-67
2022/04/02 01:37:39;;;;;;;9.97;8.97;;;;;;;-0.45;100.00;93046.63;5034817;28;20587;-67
2022/04/02 01:40:27;;;;;;;10.07;9.07;;;;;;;-0.33;100.00;93037.81;5031320;28;20412;-67
2022/04/02 01:43:14;;;;;;;10.57;9.47;;;;;;;-0.36;100.00;93034.09;5032771;28;20558;-67
2022/04/02 01:46:07;;;;;;;10.33;9.33;;;;;;;-0.44;100.00;93032.06;5033476;28;20201;-68
2022/04/02 01:48:53;;;;;;;10.50;9.43;;;;;;;-0.37;100.00;93047.91;5047365;28;20221;-67
2022/04/02 01:51:39;;;;;;;11.27;10.17;;;;;;;-0.38;100.00;93044.50;5043651;28;20670;-67
2022/04/02 01:54:29;;;;;;;9.53;8.63;;;;;;;-0.47;100.00;93046.31;5024936;28;20191;-67
2022/04/02 01:57:25;;;;;;;10.13;9.23;;;;;;;-0.39;100.00;93044.91;5032026;28;20218;-67
2022/04/02 02:00:11;;;;;;;11.67;10.50;;;;;;;-0.37;100.00;93048.66;5028272;28;20211;-67
2022/04/02 02:03:00;;;;;;;10.07;9.07;;;;;;;-0.35;100.00;93046.28;5028581;28;20191;-68
2022/04/02 02:05:47;;;;;;;10.60;9.60;;;;;;;-0.25;100.00;93039.84;5016273;28;20218;-67
2022/04/02 02:08:33;;;;;;;11.73;10.57;;;;;;;-0.31;100.00;93043.50;5020012;28;20599;-67
2022/04/02 02:11:42;;;;;;;11.00;9.90;;;;;;;-0.33;100.00;93041.25;5007060;28;20790;-68
2022/04/02 02:14:48;;;;;;;11.73;10.53;;;;;;;-0.21;100.00;93039.72;5041801;28;20198;-67
2022/04/02 02:17:36;;;;;;;11.00;9.93;;;;;;;-0.32;100.00;93048.09;5020238;28;20230;-67
2022/04/02 02:20:22;;;;;;;11.13;9.93;;;;;;;-0.30;100.00;93051.09;5021624;28;20225;-68
2022/04/02 02:23:08;;;;;;;11.63;10.53;;;;;;;-0.25;100.00;93042.50;5020345;28;20203;-67
2022/04/02 02:25:54;;;;;;;11.97;10.77;;;;;;;-0.21;100.00;93050.44;5015945;28;20223;-68
2022/04/02 02:28:43;;;;;;;12.53;11.30;;;;;;;-0.19;100.00;93046.13;5031982;28;20198;-67
2022/04/02 02:31:37;;;;;;;12.13;10.93;;;;;;;-0.28;100.00;93053.34;5019896;28;20645;-67
2022/04/02 02:37:30;;;;;;;12.00;10.80;;;;;;;-0.21;100.00;93039.72;5033285;28;20259;-67
2022/04/02 02:40:22;;;;;;;11.80;10.60;;;;;;;-0.17;100.00;93035.00;5016197;28;20223;-67
2022/04/02 02:43:08;;;;;;;11.37;10.27;;;;;;;-0.23;100.00;93042.09;5049204;28;20663;-67
2022/04/02 02:45:59;;;;;;;12.00;10.80;;;;;;;-0.25;100.00;93037.16;5032424;28;20229;-67
2022/04/02 02:48:46;;;;;;;10.33;9.33;;;;;;;-0.29;100.00;93044.56;5032614;28;20617;-67
2022/04/02 02:51:35;;;;;;;10.87;9.77;;;;;;;-0.24;100.00;93054.00;5020811;28;20194;-67
2022/04/02 02:54:22;;;;;;;11.13;10.03;;;;;;;-0.16;100.00;93039.91;5022597;28;20193;-67
2022/04/02 02:57:08;;;;;;;12.20;11.00;;;;;;;-0.13;100.00;93046.34;5022866;28;20205;-68
2022/04/02 02:59:54;;;;;;;10.33;9.33;;;;;;;-0.22;100.00;93043.59;5031562;28;20215;-67
2022/04/02 03:02:41;;;;;;;9.40;8.47;;;;;;;-0.18;100.00;93053.00;5018212;28;20198;-67
2022/04/02 03:05:31;;;;;;;11.43;10.23;;;;;;;-0.06;100.00;93046.09;5048256;28;20598;-67
2022/04/02 03:08:21;;;;;;;10.30;9.30;;;;;;;-0.04;100.00;93044.50;5019104;28;20198;-67
2022/04/02 03:11:12;;;;;;;10.33;9.30;;;;;;;0.00;100.00;93047.06;5022518;28;20198;-68
2022/04/02 03:13:59;;;;;;;10.70;9.67;;;;;;;0.08;100.00;93056.38;5020411;28;20199;-67
2022/04/02 03:16:45;;;;;;;11.47;10.27;;;;;;;0.16;100.00;93043.44;5039189;28;20233;-67
2022/04/02 03:19:35;;;;;;;9.90;8.90;;;;;;;0.12;100.00;93051.59;5014952;28;20712;-67
2022/04/02 03:22:21;;;;;;;11.57;10.37;;;;;;;0.15;100.00;93048.06;5022766;28;20209;-67
2022/04/02 03:25:11;;;;;;;9.10;8.20;;;;;;;-0.01;100.00;93046.31;5026903;28;20233;-67
2022/04/02 03:27:58;;;;;;;10.20;9.00;;;;;;;-0.20;100.00;93043.88;5013047;28;20285;-67
2022/04/02 03:30:45;;;;;;;9.40;8.50;;;;;;;-0.10;100.00;93040.09;5008701;28;20245;-67
2022/04/02 03:33:31;;;;;;;8.30;7.53;;;;;;;-0.22;100.00;93051.66;5020599;28;20634;-67
2022/04/02 03:36:21;;;;;;;9.17;8.27;;;;;;;-0.24;100.00;93041.31;5030722;28;20569;-67
2022/04/02 03:39:07;;;;;;;8.27;7.47;;;;;;;-0.31;100.00;93055.00;5033083;28;20587;-67
2022/04/02 03:41:54;;;;;;;9.70;8.70;;;;;;;-0.20;100.00;93043.88;5028251;28;20684;-67
2022/04/02 03:44:41;;;;;;;9.70;8.70;;;;;;;-0.15;100.00;93051.38;5034909;28;20283;-68
2022/04/02 03:47:27;;;;;;;8.60;7.80;;;;;;;-0.19;100.00;93059.53;5030892;28;20279;-67
2022/04/02 03:50:17;;;;;;;9.77;8.70;;;;;;;-0.20;100.00;93054.63;5026876;28;20699;-65
2022/04/02 03:53:08;;;;;;;9.23;8.33;;;;;;;-0.26;100.00;93053.69;5028452;28;20275;-65
2022/04/02 03:55:59;;;;;;;9.70;8.70;;;;;;;-0.44;100.00;93051.56;5017528;28;20214;-65
2022/04/02 03:58:54;;;;;;;9.10;8.20;;;;;;;-0.43;100.00;93053.06;5034424;28;20218;-65
2022/04/02 04:01:40;;;;;;;9.07;8.17;;;;;;;-0.46;100.00;93061.22;5034621;28;20187;-65
2022/04/02 04:04:27;;;;;;;9.90;8.90;;;;;;;-0.50;100.00;93064.03;5032712;28;20219;-65
2022/04/02 04:07:15;;;;;;;10.07;9.07;;;;;;;-0.52;100.00;93065.63;5032445;28;20202;-65
2022/04/02 04:10:02;;;;;;;11.87;10.20;;;;;;;-0.37;100.00;93067.44;5014588;28;20313;-65
2022/04/02 04:12:48;;;;;;;11.53;10.33;;;;;;;-0.42;100.00;93067.97;5001940;28;20187;-65
2022/04/02 04:15:35;;;;;;;10.97;9.60;;;;;;;-0.50;100.00;93074.00;5002040;28;20293;-65
2022/04/02 04:18:24;;;;;;;10.70;9.60;;;;;;;-0.44;100.00;93081.06;5029037;28;20325;-65
2022/04/02 04:21:11;;;;;;;11.47;10.03;;;;;;;-0.56;100.00;93081.09;5034745;28;20198;-65
2022/04/02 04:23:57;;;;;;;11.07;9.97;;;;;;;-0.57;100.00;93079.56;5030765;28;20187;-65
2022/04/02 04:26:43;;;;;;;11.43;9.53;;;;;;;-0.61;100.00;93087.00;5031474;28;20195;-65
2022/04/02 04:29:29;;;;;;;11.80;10.60;;;;;;;-0.58;100.00;93089.56;5019716;28;20218;-65
2022/04/02 04:32:15;;;;;;;11.23;9.67;;;;;;;-0.63;100.00;93100.06;5013662;28;20563;-65
2022/04/02 04:35:02;;;;;;;10.13;9.03;;;;;;;-0.66;100.00;93088.25;5016262;28;20195;-65
2022/04/02 04:37:49;;;;;;;10.17;8.83;;;;;;;-0.64;100.00;93093.94;5022284;28;20195;-65
2022/04/02 04:40:40;;;;;;;11.13;9.47;;;;;;;-0.68;100.00;93085.25;5024371;28;20222;-65
2022/04/02 04:43:26;;;;;;;12.60;9.93;;;;;;;-0.59;100.00;93096.09;5034320;28;20198;-65
2022/04/02 04:46:12;;;;;;;9.00;8.10;;;;;;;-0.63;100.00;93100.06;5032969;28;20228;-65
2022/04/02 04:48:59;;;;;;;9.67;8.57;;;;;;;-0.67;100.00;93107.44;5003363;28;20214;-65
2022/04/02 04:51:47;;;;;;;10.80;9.70;;;;;;;-0.73;100.00;93096.50;5031842;28;20225;-65
2022/04/02 04:54:33;;;;;;;11.03;9.90;;;;;;;-0.65;100.00;93108.53;5038240;28;20197;-65
2022/04/02 04:57:22;;;;;;;10.60;9.47;;;;;;;-0.53;100.00;93107.78;5016331;28;20199;-65
2022/04/02 05:00:20;;;;;;;10.47;9.37;;;;;;;-0.63;100.00;93114.19;5023967;28;20367;-65
2022/04/02 05:03:08;;;;;;;10.10;8.87;;;;;;;-0.57;100.00;93114.41;5035152;28;20198;-65
2022/04/02 05:06:02;;;;;;;9.40;8.33;;;;;;;-0.62;100.00;93115.72;5027047;28;20223;-65
2022/04/02 05:08:48;;;;;;;9.03;8.00;;;;;;;-0.67;100.00;93126.97;5031882;28;20277;-65
2022/04/02 05:11:35;;;;;;;10.57;9.17;;;;;;;-0.76;100.00;93128.78;5040449;28;20194;-65
2022/04/02 05:14:23;;;;;;;10.77;8.60;;;;;;;-0.52;100.00;93127.28;5018240;28;20195;-65
2022/04/02 05:17:13;;;;;;;9.70;8.73;;;;;;;-0.55;100.00;93126.22;5026630;28;20206;-64
2022/04/02 05:19:59;;;;;;;10.73;9.33;;;;;;;-0.53;100.00;93129.22;5033101;28;20245;-65
2022/04/02 05:22:46;;;;;;;10.83;8.80;;;;;;;-0.55;100.00;93134.25;5023657;28;20198;-65
2022/04/02 05:25:33;;;;;;;10.20;9.07;;;;;;;-0.51;100.00;93140.25;5031260;28;20222;-65
2022/04/02 05:28:19;;;;;;;12.63;10.10;;;;;;;-0.42;100.00;93136.91;5044525;28;20293;-65
2022/04/02 05:31:08;;;;;;;12.63;9.67;;;;;;;-0.46;100.00;93142.41;5020017;28;20649;-65
2022/04/02 05:33:54;;;;;;;11.60;9.53;;;;;;;-0.55;100.00;93139.63;5001194;28;20990;-65
2022/04/02 05:36:42;;;;;;;9.60;8.40;;;;;;;-0.46;100.00;93147.03;5040692;28;20203;-65
2022/04/02 05:39:28;;;;;;;11.10;9.47;;;;;;;-0.47;100.00;93151.63;5015764;28;20218;-65
2022/04/02 05:42:14;;;;;;;12.03;9.40;;;;;;;-0.49;100.00;93147.84;5029510;28;20232;-65
2022/04/02 05:45:00;;;;;;;9.80;8.80;;;;;;;-0.57;100.00;93157.31;5031386;28;20223;-65
2022/04/02 05:47:49;;;;;;;12.27;10.03;;;;;;;-0.65;100.00;93158.69;5040902;28;20369;-65
2022/04/02 05:50:35;;;;;;;15.37;9.77;;;;;;;-0.54;100.00;93161.81;5042118;28;20357;-65
2022/04/02 05:53:21;;;;;;;11.40;9.07;;;;;;;-0.48;100.00;93168.91;5028206;28;20271;-66
2022/04/02 05:56:07;;;;;;;9.47;8.47;;;;;;;-0.59;100.00;93173.06;5048374;28;20233;-65
2022/04/02 05:58:54;;;;;;;11.30;9.70;;;;;;;-0.45;100.00;93181.44;5008701;28;20210;-65
2022/04/02 06:01:40;;;;;;;10.47;9.33;;;;;;;-0.41;100.00;93182.06;5031517;28;20209;-65
2022/04/02 06:04:28;;;;;;;9.90;7.90;;;;;;;-0.47;100.00;93183.03;5046369;28;20233;-65
2022/04/02 06:07:14;;;;;;;14.23;9.60;;;;;;;-0.53;100.00;93172.13;5041159;28;20190;-65
2022/04/02 06:10:02;;;;;;;12.00;9.17;;;;;;;-0.32;100.00;93184.09;5036967;28;20276;-65
2022/04/02 06:12:50;;;;;;;12.63;10.50;;;;;;;-0.08;100.00;93187.97;5037020;28;20195;-65
2022/04/02 06:15:36;;;;;;;11.37;10.03;;;;;;;-0.18;100.00;93189.81;5025948;28;20196;-65
2022/04/02 06:18:22;;;;;;;10.60;8.70;;;;;;;-0.02;100.00;93207.72;5036997;28;20207;-65
2022/04/02 06:21:08;;;;;;;10.83;8.10;;;;;;;-0.17;100.00;93193.97;5043651;28;20221;-65
2022/04/02 06:23:54;;;;;;;13.50;8.67;;;;;;;-0.28;100.00;93203.53;5045171;28;21019;-65
2022/04/02 06:26:39;;;;;;;11.73;9.13;;;;;;;-0.17;100.00;93209.34;5037115;28;20350;-65
2022/04/02 06:29:25;;;;;;;11.70;7.93;;;;;;;-0.20;100.00;93210.94;5034325;28;20270;-65
2022/04/02 06:32:11;;;;;;;9.70;7.40;;;;;;;-0.21;100.00;93208.69;5024243;28;20218;-65
2022/04/02 06:34:57;;;;;;;8.97;8.07;;;;;;;-0.14;100.00;93219.94;5025690;28;20191;-65
2022/04/02 06:37:43;;;;;;;8.23;7.40;;;;;;;-0.10;100.00;93219.81;5033042;28;20203;-65
2022/04/02 06:40:29;;;;;;;11.50;8.00;;;;;;;-0.24;100.00;93222.97;5039623;28;20277;-65
2022/04/02 06:43:15;;;;;;;13.10;8.80;;;;;;;-0.32;100.00;93219.72;5043441;28;20191;-65
2022/04/02 06:46:11;;;;;;;12.53;8.40;;;;;;;-0.38;100.00;93224.13;5030917;28;20252;-65
2022/04/02 06:48:58;;;;;;;12.30;9.03;;;;;;;-0.27;100.00;93229.91;5033952;28;20222;-65
2022/04/02 06:51:43;;;;;;;8.83;7.77;;;;;;;-0.23;100.00;93230.56;5040255;28;20194;-65
2022/04/02 06:54:29;;;;;;;20.50;8.47;;;;;;;-0.20;100.00;93239.69;5041029;28;20198;-65
2022/04/02 06:57:22;;;;;;;11.27;8.47;;;;;;;-0.14;100.00;93243.34;5017235;28;20195;-65
2022/04/02 07:00:09;;;;;;;12.27;9.00;;;;;;;-0.17;100.00;93244.94;5040155;28;20263;-65
2022/04/02 07:02:55;;;;;;;11.07;8.30;;;;;;;-0.35;100.00;93247.41;5036736;28;20650;-65
2022/04/02 07:05:41;;;;;;;9.80;8.70;;;;;;;-0.20;100.00;93253.84;5032012;28;20257;-65
2022/04/02 07:08:27;;;;;;;9.77;8.60;;;;;;;-0.21;100.00;93260.41;5039636;28;20206;-65
2022/04/02 07:11:13;;;;;;;11.77;9.27;;;;;;;-0.14;100.00;93252.13;5040809;28;20198;-67
2022/04/02 07:13:59;;;;;;;10.07;8.20;;;;;;;-0.28;100.00;93268.66;5043326;28;20191;-67
2022/04/02 07:16:45;;;;;;;12.90;8.50;;;;;;;-0.20;100.00;93269.19;5030000;28;20210;-67
2022/04/02 07:19:32;;;;;;;13.50;9.03;;;;;;;-0.02;100.00;93274.78;5045610;28;20225;-67
2022/04/02 07:22:21;;;;;;;15.00;9.17;;;;;;;-0.29;100.00;93274.44;5043626;28;20195;-68
2022/04/02 07:25:07;;;;;;;12.40;9.03;;;;;;;-0.17;100.00;93292.50;5045191;28;20221;-67
2022/04/02 07:27:55;;;;;;;13.80;10.77;;;;;;;-0.05;100.00;93284.44;5048809;28;20547;-67
2022/04/02 07:30:44;;;;;;;18.10;9.80;;;;;;;0.03;100.00;93293.03;5030784;28;20305;-67
2022/04/02 07:33:38;;;;;;;20.23;9.60;;;;;;;-0.17;100.00;93293.22;5003883;28;20233;-66
2022/04/02 07:36:50;;;;;;;14.53;9.10;;;;;;;0.07;100.00;93295.63;5047215;28;20283;-66
2022/04/02 07:40:05;;;;;;;14.50;9.57;;;;;;;0.13;100.00;93301.94;5039709;28;20271;-66
2022/04/02 07:43:12;;;;;;;14.30;9.37;;;;;;;-0.16;100.00;93308.16;5049832;28;20725;-66
2022/04/02 07:46:04;;;;;;;12.47;9.33;;;;;;;0.10;100.00;93300.13;5021767;28;20218;-66
2022/04/02 07:48:50;;;;;;;14.37;9.83;;;;;;;0.09;100.00;93304.72;5044020;28;20274;-67
2022/04/02 07:51:51;;;;;;;13.50;9.90;;;;;;;0.02;100.00;93312.97;5032719;28;20208;-66
2022/04/02 07:54:41;;;;;;;14.47;10.40;;;;;;;0.39;100.00;93312.22;5039365;28;20220;-67
2022/04/02 07:57:38;;;;;;;18.57;10.47;;;;;;;0.33;100.00;93323.94;5029863;28;20206;-67
2022/04/02 08:00:26;;;;;;;13.10;9.77;;;;;;;0.29;100.00;93324.03;5021246;28;20206;-67
2022/04/02 08:03:12;;;;;;;13.33;8.73;;;;;;;0.43;100.00;93338.97;5044423;28;20190;-66
2022/04/02 08:05:58;;;;;;;16.23;10.37;;;;;;;0.64;100.00;93341.75;5042810;28;20222;-67
2022/04/02 08:08:45;;;;;;;14.20;9.13;;;;;;;0.46;100.00;93349.59;5023928;28;20222;-67
2022/04/02 08:11:32;;;;;;;15.83;10.10;;;;;;;0.74;100.00;93337.22;5041840;28;20196;-66
2022/04/02 08:14:18;;;;;;;17.07;9.67;;;;;;;0.83;100.00;93342.69;5045742;28;20200;-68
2022/04/02 08:17:07;;;;;;;15.13;9.17;;;;;;;0.69;100.00;93345.84;5025146;28;20787;-66
2022/04/02 08:19:54;;;;;;;16.30;9.63;;;;;;;0.75;100.00;93344.84;5026269;28;20245;-67
2022/04/02 08:22:42;;;;;;;16.70;9.50;;;;;;;0.37;100.00;93354.88;5035195;28;20273;-68
2022/04/02 08:25:28;;;;;;;11.27;9.67;;;;;;;0.27;100.00;93357.88;5030558;28;20340;-66
2022/04/02 08:28:25;;;;;;;12.43;9.53;;;;;;;0.45;100.00;93363.47;5037452;28;20274;-66
2022/04/02 08:31:20;;;;;;;18.60;10.30;;;;;;;0.45;100.00;93358.84;5039691;28;20206;-67
2022/04/02 08:34:24;;;;;;;14.93;10.07;;;;;;;0.96;100.00;93367.59;5029868;28;20198;-67
2022/04/02 08:37:22;;;;;;;13.30;10.07;;;;;;;0.55;100.00;93370.44;5027177;28;20241;-66
2022/04/02 08:40:08;;;;;;;18.20;10.40;;;;;;;0.44;100.00;93373.44;5028518;28;20215;-67
2022/04/02 08:43:12;;;;;;;15.77;10.10;;;;;;;0.58;100.00;93383.00;5029879;28;20302;-67
2022/04/02 08:46:31;;;;;;;14.90;10.93;;;;;;;0.76;100.00;93388.59;5036443;28;20259;-66
2022/04/02 08:49:20;;;;;;;14.30;9.33;;;;;;;0.74;100.00;93374.84;5039544;28;20347;-66
2022/04/02 08:52:14;;;;;;;15.50;9.00;;;;;;;0.71;100.00;93397.19;5028776;28;20187;-67
2022/04/02 08:55:03;;;;;;;21.53;10.53;;;;;;;1.07;100.00;93401.00;5027866;28;20194;-67
2022/04/02 08:57:52;;;;;;;15.20;10.37;;;;;;;1.19;100.00;93399.47;5017195;28;20688;-67
2022/04/02 09:00:41;;;;;;;14.97;9.27;;;;;;;1.84;100.00;93405.72;5048970;28;20576;-66
2022/04/02 09:03:47;;;;;;;20.20;11.30;;;;;;;2.14;100.00;93415.03;5048252;28;20301;-67
2022/04/02 09:06:59;;;;;;;15.37;10.20;;;;;;;2.32;100.00;93426.66;5021644;28;20720;-67
2022/04/02 09:10:26;;;;;;;15.50;9.97;;;;;;;1.79;100.00;93422.44;5019680;28;20715;-67
2022/04/02 09:13:36;;;;;;;11.80;9.63;;;;;;;1.57;100.00;93418.22;5002141;28;20194;-67
2022/04/02 09:16:27;;;;;;;19.47;9.03;;;;;;;0.91;100.00;93428.03;5033064;28;20197;-66
2022/04/02 09:19:22;;;;;;;13.93;9.93;;;;;;;0.94;100.00;93423.72;5027046;28;20262;-66
2022/04/02 09:22:23;;;;;;;15.07;9.13;;;;;;;0.64;100.00;93435.00;5018191;28;20222;-66
2022/04/02 09:25:27;;;;;;;17.30;8.70;;;;;;;0.65;100.00;93425.75;5033450;28;20293;-67
2022/04/02 09:28:40;;;;;;;14.73;9.87;;;;;;;0.67;100.00;93444.91;5013512;28;20190;-67
2022/04/02 09:32:05;;;;;;;11.40;8.53;;;;;;;0.93;100.00;93452.50;5013920;28;20182;-67
2022/04/02 09:35:00;;;;;;;15.57;8.70;;;;;;;1.32;100.00;93455.94;5040774;28;20202;-67
2022/04/02 09:38:14;;;;;;;10.43;8.33;;;;;;;1.55;100.00;93453.63;5037522;28;20703;-67
2022/04/02 09:41:35;;;;;;;16.23;8.60;;;;;;;1.01;100.00;93445.75;5018584;28;20198;-66
2022/04/02 09:44:49;;;;;;;13.20;7.90;;;;;;;0.79;100.00;93454.91;5023640;28;20214;-67
2022/04/02 09:47:56;;;;;;;10.50;7.73;;;;;;;1.02;100.00;93455.31;5048247;28;20739;-67
2022/04/02 09:50:45;;;;;;;11.53;7.60;;;;;;;1.09;100.00;93465.84;5024492;28;20212;-67
2022/04/02 09:53:37;;;;;;;13.03;9.10;;;;;;;1.35;100.00;93463.13;5025231;28;20668;-66
2022/04/02 09:56:32;;;;;;;11.80;8.00;;;;;;;0.98;100.00;93464.69;5027797;28;20198;-66
2022/04/02 09:59:22;;;;;;;14.30;7.97;;;;;;;1.24;100.00;93463.47;5038253;28;20298;-68
2022/04/02 10:02:21;;;;;;;12.00;7.80;;;;;;;1.85;100.00;93477.19;5032440;28;20268;-66
2022/04/02 10:05:08;;;;;;;13.97;7.63;;;;;;;1.34;100.00;93464.31;5017714;28;20225;-66
2022/04/02 10:08:05;;;;;;;13.33;7.50;;;;;;;2.48;100.00;93483.06;5048011;28;20681;-67
2022/04/02 10:10:55;;;;;;;11.20;7.87;;;;;;;2.44;100.00;93473.59;5044819;28;20213;-66
2022/04/02 10:13:43;;;;;;;12.90;7.80;;;;;;;2.83;99.66;93475.63;5022033;28;20229;-67
2022/04/02 10:16:30;;;;;;;11.53;7.80;;;;;;;2.41;100.00;93483.31;5036550;28;20197;-67
2022/04/02 10:19:17;;;;;;;10.40;8.43;;;;;;;1.62;100.00;93487.59;5051310;28;20225;-66
2022/04/02 10:22:04;;;;;;;13.57;7.77;;;;;;;1.55;100.00;93495.91;5051099;28;20217;-67
2022/04/02 10:24:51;;;;;;;8.93;7.27;;;;;;;1.16;100.00;93495.22;5036298;28;20697;-66
2022/04/02 10:27:39;;;;;;;8.53;6.87;;;;;;;0.84;100.00;93500.03;5036816;28;20244;-66
2022/04/02 10:30:25;;;;;;;12.67;8.03;;;;;;;1.17;100.00;93502.06;5035567;28;20238;-67
2022/04/02 10:33:26;;;;;;;10.60;8.07;;;;;;;1.54;100.00;93495.16;5052914;28;20205;-67
2022/04/02 10:36:13;;;;;;;10.57;7.10;;;;;;;1.71;100.00;93522.66;5038994;28;20613;-66
2022/04/02 10:38:59;;;;;;;13.77;8.07;;;;;;;2.30;100.00;93512.56;5038200;28;20593;-67
2022/04/02 10:41:53;;;;;;;13.70;7.53;;;;;;;1.64;100.00;93517.50;5035594;28;20206;-66
2022/04/02 10:44:58;;;;;;;8.33;5.90;;;;;;;1.29;100.00;93516.69;5032608;28;20249;-67
2022/04/02 10:47:49;;;;;;;9.17;7.60;;;;;;;1.43;100.00;93518.19;5039773;28;20277;-67
2022/04/02 10:50:37;;;;;;;8.90;7.47;;;;;;;1.36;100.00;93518.44;5025313;28;20298;-66
2022/04/02 10:53:24;;;;;;;8.63;7.10;;;;;;;1.47;100.00;93527.66;5050817;28;20199;-66
2022/04/02 10:56:25;;;;;;;8.63;7.57;;;;;;;1.60;100.00;93528.38;5026307;28;20190;-66
2022/04/02 10:59:18;;;;;;;10.50;7.33;;;;;;;1.79;100.00;93532.78;5032030;28;20321;-67
2022/04/02 11:02:20;;;;;;;10.33;7.40;;;;;;;1.95;100.00;93534.56;5017556;28;20193;-66
2022/04/02 11:05:08;;;;;;;9.83;7.37;;;;;;;1.91;100.00;93537.38;5041482;28;20561;-67
2022/04/02 11:08:04;;;;;;;8.00;7.00;;;;;;;2.19;100.00;93541.78;5050428;28;20197;-68
2022/04/02 11:10:50;;;;;;;10.13;7.70;;;;;;;1.81;100.00;93543.09;5050537;28;20592;-67
2022/04/02 11:13:43;;;;;;;9.20;8.23;;;;;;;1.17;100.00;93547.78;5035553;28;20273;-67
2022/04/02 11:16:40;;;;;;;13.90;7.77;;;;;;;0.88;100.00;93551.75;5036676;28;20273;-67
2022/04/02 11:22:59;;;;;;;14.30;7.83;;;;;;;1.49;100.00;93548.75;5048512;28;20273;-66
2022/04/02 11:25:49;;;;;;;10.83;9.00;;;;;;;2.28;100.00;93558.03;5041975;28;20242;-67
2022/04/02 11:28:44;;;;;;;11.93;8.00;;;;;;;2.39;100.00;93561.09;5034223;28;20199;-67
2022/04/02 11:31:31;;;;;;;10.77;6.90;;;;;;;2.25;100.00;93568.94;5035783;28;20190;-67
2022/04/02 11:34:20;;;;;;;11.57;8.23;;;;;;;2.54;100.00;93566.78;5051212;28;20190;-67
2022/04/02 11:37:09;;;;;;;9.43;7.60;;;;;;;2.55;100.00;93570.19;5036677;28;20191;-67
2022/04/02 11:40:04;;;;;;;9.33;7.83;;;;;;;2.24;100.00;93576.25;5020499;28;20211;-66
2022/04/02 11:42:51;;;;;;;9.93;7.63;;;;;;;2.21;100.00;93579.81;5047163;28;20294;-67
2022/04/02 11:45:39;;;;;;;9.87;8.43;;;;;;;1.86;100.00;93580.22;5041038;28;20225;-66
2022/04/02 11:48:32;;;;;;;9.90;7.77;;;;;;;1.39;100.00;93590.94;5016166;28;20194;-66
2022/04/02 11:51:22;;;;;;;9.93;8.50;;;;;;;1.48;100.00;93576.84;5034518;28;20226;-67
2022/04/02 11:54:11;;;;;;;13.93;8.50;;;;;;;1.56;100.00;93595.00;5050466;28;21028;-67
2022/04/02 11:57:17;;;;;;;10.73;9.10;;;;;;;1.76;100.00;93587.47;5045175;28;20197;-67
2022/04/02 12:00:05;;;;;;;14.33;8.73;;;;;;;2.00;100.00;93585.16;5029338;28;20206;-66
2022/04/02 12:03:01;;;;;;;12.03;7.83;;;;;;;2.04;100.00;93591.16;5035943;28;20802;-67
2022/04/02 12:05:48;;;;;;;12.40;9.20;;;;;;;1.72;100.00;93597.56;5014318;28;20219;-67
2022/04/02 12:08:37;;;;;;;12.27;7.93;;;;;;;1.87;100.00;93598.63;5016917;28;20195;-66
2022/04/02 12:11:24;;;;;;;13.90;8.73;;;;;;;1.92;100.00;93600.78;5049879;28;20244;-66
2022/04/02 12:14:10;;;;;;;13.67;8.50;;;;;;;2.01;100.00;93600.88;5020065;28;20212;-67
2022/04/02 12:17:11;;;;;;;11.50;7.40;;;;;;;1.44;100.00;93617.28;5048032;28;20281;-68
2022/04/02 12:19:58;;;;;;;10.23;7.73;;;;;;;1.50;100.00;93599.41;5014301;28;20254;-67
2022/04/02 12:22:46;;;;;;;11.60;7.13;;;;;;;1.92;100.00;93608.84;5040147;28;20206;-67
2022/04/02 12:25:32;;;;;;;12.73;7.50;;;;;;;2.36;100.00;93605.09;5026689;28;21131;-66
2022/04/02 12:28:21;;;;;;;12.37;8.10;;;;;;;2.42;100.00;93614.13;5048790;28;20587;-67
2022/04/02 12:31:07;;;;;;;12.77;8.47;;;;;;;2.25;100.00;93612.78;5050590;28;20186;-66
2022/04/02 12:33:54;;;;;;;10.53;7.27;;;;;;;1.37;100.00;93614.81;5049226;28;20194;-66
2022/04/02 12:36:43;;;;;;;10.17;7.77;;;;;;;1.02;100.00;93623.88;5035527;28;20267;-66
2022/04/02 12:39:29;;;;;;;15.43;9.77;;;;;;;1.04;100.00;93629.59;5046145;28;20719;-67
2022/04/02 12:42:15;;;;;;;11.47;8.23;;;;;;;0.98;100.00;93634.00;5029640;28;20233;-67
2022/04/02 12:45:21;;;;;;;10.77;8.73;;;;;;;1.29;100.00;93629.63;5031123;28;20218;-66
2022/04/02 12:48:17;;;;;;;9.30;7.97;;;;;;;1.40;100.00;93624.69;5002780;28;20191;-67
2022/04/02 12:51:05;;;;;;;11.23;7.57;;;;;;;1.73;100.00;93631.38;5015781;28;20676;-66
2022/04/02 12:54:03;;;;;;;12.83;8.40;;;;;;;1.63;100.00;93632.44;5020956;28;20290;-66
2022/04/02 12:56:50;;;;;;;12.90;7.93;;;;;;;1.42;100.00;93633.09;5040355;28;20186;-67
2022/04/02 12:59:41;;;;;;;11.47;7.50;;;;;;;1.52;100.00;93645.47;5027807;28;20217;-67
2022/04/02 13:02:32;;;;;;;9.27;7.93;;;;;;;1.31;100.00;93645.34;5029665;28;20206;-66
2022/04/02 13:05:20;;;;;;;8.67;7.77;;;;;;;1.35;100.00;93648.69;5026706;28;20237;-67
2022/04/02 13:08:07;;;;;;;11.87;7.57;;;;;;;1.43;100.00;93653.41;5028593;28;20498;-67
2022/04/02 13:10:58;;;;;;;10.83;8.17;;;;;;;1.74;100.00;93649.03;5030739;28;20368;-67
2022/04/02 13:13:47;;;;;;;11.13;7.27;;;;;;;1.72;100.00;93658.72;5029983;28;20214;-67
2022/04/02 13:16:39;;;;;;;7.17;6.47;;;;;;;1.49;100.00;93656.34;5029586;28;20198;-67